createdAt,value
2023-03-22T00:01:15.248Z,100029.13
2023-03-22T00:03:44.415Z,100030.85
2023-03-22T00:06:16.316Z,100027.59
2023-03-22T00:08:46.022Z,100029.25
2023-03-22T00:11:15.526Z,100024.13
2023-03-22T00:13:43.452Z,100025.40
2023-03-22T00:16:10.601Z,100021.25
2023-03-22T00:18:38.513Z,100024.94
2023-03-22T00:21:10.570Z,100023.52
2023-03-22T00:23:37.635Z,100029.06
2023-03-22T00:26:06.206Z,100029.91
2023-03-22T00:28:34.786Z,100034.16
2023-03-22T00:31:02.098Z,100038.56
2023-03-22T00:33:29.619Z,100036.38
2023-03-22T00:36:03.713Z,100031.06
2023-03-22T00:38:42.482Z,100027.98
2023-03-22T00:41:10.587Z,100029.56
2023-03-22T00:43:40.080Z,100027.67
2023-03-22T00:46:08.281Z,100028.40
2023-03-22T00:48:35.803Z,100028.73
2023-03-22T00:51:03.998Z,100028.23
2023-03-22T00:53:41.110Z,100030.95
2023-03-22T00:56:10.303Z,100027.84
2023-03-22T00:58:44.236Z,100028.41
2023-03-22T01:01:14.568Z,100028.89
2023-03-22T01:03:42.873Z,100032.19
2023-03-22T01:06:10.668Z,100031.88
2023-03-22T01:08:38.449Z,100031.30
2023-03-22T01:11:06.932Z,100031.23
2023-03-22T01:13:36.861Z,100029.41
2023-03-22T01:16:04.845Z,100030.86
2023-03-22T01:18:32.946Z,100030.35
2023-03-22T01:21:00.120Z,100034.68
2023-03-22T01:23:27.004Z,100037.23
2023-03-22T01:25:53.811Z,100035.70
2023-03-22T01:28:21.076Z,100037.17
2023-03-22T01:30:47.958Z,100041.80
2023-03-22T01:33:15.873Z,100040.55
2023-03-22T01:35:44.831Z,100045.38
2023-03-22T01:38:12.531Z,100045.17
2023-03-22T01:40:50.253Z,100045.17
2023-03-22T01:43:18.293Z,100043.41
2023-03-22T01:45:56.636Z,100040.68
2023-03-22T01:48:28.006Z,100044.48
2023-03-22T01:51:02.682Z,100043.82
2023-03-22T01:53:33.521Z,100046.12
2023-03-22T01:56:00.991Z,100046.48
2023-03-22T01:58:32.439Z,100048.05
2023-03-22T02:01:01.335Z,100045.48
2023-03-22T02:03:51.004Z,100042.17
2023-03-22T02:06:18.967Z,100042.20
2023-03-22T02:08:52.604Z,100040.86
2023-03-22T02:11:25.660Z,100042.54
2023-03-22T02:14:11.035Z,100040.74
2023-03-22T02:17:05.829Z,100041.86
2023-03-22T02:19:53.666Z,100037.59
2023-03-22T02:22:31.673Z,100037.61
2023-03-22T02:25:19.919Z,100036.98
2023-03-22T02:27:56.083Z,100041.16
2023-03-22T02:30:31.929Z,100040.76
2023-03-22T02:33:12.299Z,100039.77
2023-03-22T02:35:46.152Z,100040.42
2023-03-22T02:38:45.302Z,100038.38
2023-03-22T02:41:22.071Z,100043.84
2023-03-22T02:44:06.636Z,100046.39
2023-03-22T02:46:39.394Z,100048.97
2023-03-22T02:49:17.032Z,100051.42
2023-03-22T02:51:52.761Z,100052.81
2023-03-22T02:54:25.945Z,100053.71
2023-03-22T02:56:53.918Z,100057.30
2023-03-22T02:59:21.373Z,100056.09
2023-03-22T03:01:51.117Z,100060.09
2023-03-22T03:04:25.844Z,100055.08
2023-03-22T03:06:53.825Z,100056.59
2023-03-22T03:09:20.725Z,100061.18
2023-03-22T03:11:50.440Z,100060.77
2023-03-22T03:14:24.959Z,100061.46
2023-03-22T03:17:03.679Z,100059.30
2023-03-22T03:19:37.890Z,100062.65
2023-03-22T03:22:22.351Z,100073.53
2023-03-22T03:24:55.274Z,100072.04
2023-03-22T03:27:23.301Z,100077.22
2023-03-22T03:30:09.912Z,100077.63
2023-03-22T03:32:42.486Z,100081.16
2023-03-22T03:35:23.017Z,100085.05
2023-03-22T03:37:57.176Z,100085.41
2023-03-22T03:40:30.669Z,100088.40
2023-03-22T03:43:03.453Z,100089.11
2023-03-22T03:45:30.695Z,100090.36
2023-03-22T03:48:00.159Z,100092.16
2023-03-22T03:50:28.050Z,100095.92
2023-03-22T03:52:55.950Z,100101.17
2023-03-22T03:55:23.088Z,100103.07
2023-03-22T03:57:51.680Z,100107.48
2023-03-22T04:00:20.912Z,100107.05
2023-03-22T04:03:11.466Z,100108.38
2023-03-22T04:05:46.615Z,100113.39
2023-03-22T04:08:13.960Z,100117.20
2023-03-22T04:10:50.659Z,100118.21
2023-03-22T04:13:24.737Z,100119.50
2023-03-22T04:15:53.024Z,100121.18
2023-03-22T04:18:29.284Z,100120.13
2023-03-22T04:20:56.973Z,100121.95
2023-03-22T04:23:25.246Z,100121.52
2023-03-22T04:25:52.177Z,100120.78
2023-03-22T04:28:28.045Z,100125.30
2023-03-22T04:30:57.366Z,100125.46
2023-03-22T04:33:47.816Z,100127.12
2023-03-22T04:36:39.753Z,100125.66
2023-03-22T04:39:17.897Z,100129.59
2023-03-22T04:41:52.175Z,100129.27
2023-03-22T04:44:22.290Z,100129.79
2023-03-22T04:46:50.789Z,100131.10
2023-03-22T04:49:23.712Z,100130.25
2023-03-22T04:51:51.319Z,100132.50
2023-03-22T04:54:27.071Z,100133.62
2023-03-22T04:56:55.165Z,100132.42
2023-03-22T04:59:23.164Z,100137.52
2023-03-22T05:01:55.515Z,100141.71
2023-03-22T05:04:26.724Z,100141.20
2023-03-22T05:06:59.831Z,100142.74
2023-03-22T05:09:36.530Z,100145.83
2023-03-22T05:12:07.257Z,100148.75
2023-03-22T05:15:03.253Z,100146.35
2023-03-22T05:17:33.955Z,100147.38
2023-03-22T05:20:08.821Z,100147.58
2023-03-22T05:22:40.259Z,100148.29
2023-03-22T05:25:08.153Z,100142.91
2023-03-22T05:27:38.560Z,100146.08
2023-03-22T05:30:21.584Z,100147.60
2023-03-22T05:32:59.502Z,100150.78
2023-03-22T05:35:26.506Z,100151.33
2023-03-22T05:37:54.343Z,100155.47
2023-03-22T05:40:24.210Z,100153.52
2023-03-22T05:42:51.243Z,100155.61
2023-03-22T05:45:24.064Z,100157.46
2023-03-22T05:48:06.289Z,100157.71
2023-03-22T05:50:33.154Z,100155.99
2023-03-22T05:53:03.412Z,100161.45
2023-03-22T05:55:44.424Z,100164.11
2023-03-22T05:58:18.400Z,100161.91
2023-03-22T06:00:46.189Z,100165.05
2023-03-22T06:03:25.835Z,100166.10
2023-03-22T06:06:06.410Z,100171.99
2023-03-22T06:08:38.872Z,100175.99
2023-03-22T06:11:10.623Z,100177.36
2023-03-22T06:13:37.645Z,100175.43
2023-03-22T06:16:05.260Z,100179.27
2023-03-22T06:18:32.858Z,100183.77
2023-03-22T06:21:06.065Z,100182.78
2023-03-22T06:23:33.034Z,100188.00
2023-03-22T06:26:04.007Z,100191.57
2023-03-22T06:28:34.180Z,100194.41
2023-03-22T06:31:05.229Z,100194.63
2023-03-22T06:33:45.135Z,100194.90
2023-03-22T06:36:26.252Z,100197.74
2023-03-22T06:39:13.305Z,100193.86
2023-03-22T06:41:43.301Z,100194.95
2023-03-22T06:44:15.579Z,100194.89
2023-03-22T06:47:03.168Z,100198.16
2023-03-22T06:49:49.074Z,100199.96
2023-03-22T06:52:24.128Z,100200.07
2023-03-22T06:54:51.639Z,100199.52
2023-03-22T06:57:19.502Z,100199.75
2023-03-22T06:59:46.788Z,100204.70
2023-03-22T07:02:13.513Z,100203.95
2023-03-22T07:04:45.920Z,100202.61
2023-03-22T07:07:18.103Z,100206.85
2023-03-22T07:09:45.334Z,100207.02
2023-03-22T07:12:12.913Z,100207.73
2023-03-22T07:14:40.834Z,100213.98
2023-03-22T07:17:23.009Z,100215.23
2023-03-22T07:19:55.437Z,100215.56
2023-03-22T07:22:24.220Z,100217.27
2023-03-22T07:25:01.674Z,100215.39
2023-03-22T07:27:50.289Z,100214.77
2023-03-22T07:30:18.154Z,100213.58
2023-03-22T07:32:48.531Z,100211.34
2023-03-22T07:35:16.609Z,100211.03
2023-03-22T07:37:43.988Z,100208.17
2023-03-22T07:40:20.085Z,100207.16
2023-03-22T07:42:49.840Z,100206.60
2023-03-22T07:45:36.952Z,100212.48
2023-03-22T07:48:42.226Z,100208.66
2023-03-22T07:51:41.108Z,100205.56
2023-03-22T07:54:08.305Z,100206.55
2023-03-22T07:56:35.245Z,100206.55
2023-03-22T07:59:02.433Z,100205.66
2023-03-22T08:01:29.593Z,100207.96
2023-03-22T08:04:05.236Z,100211.23
2023-03-22T08:06:59.426Z,100213.83
2023-03-22T08:09:27.785Z,100215.34
2023-03-22T08:11:56.212Z,100215.62
2023-03-22T08:14:35.495Z,100217.14
2023-03-22T08:17:04.321Z,100216.23
2023-03-22T08:19:33.501Z,100216.31
2023-03-22T08:22:00.652Z,100223.35
2023-03-22T08:25:00.714Z,100223.73
2023-03-22T08:27:31.057Z,100220.96
2023-03-22T08:30:00.466Z,100224.67
2023-03-22T08:32:28.128Z,100218.19
2023-03-22T08:34:58.521Z,100219.75
2023-03-22T08:37:26.110Z,100218.23
2023-03-22T08:39:53.336Z,100217.95
2023-03-22T08:42:24.062Z,100216.69
2023-03-22T08:44:52.010Z,100210.34
2023-03-22T08:47:19.748Z,100211.45
2023-03-22T08:49:46.492Z,100212.10
2023-03-22T08:52:22.229Z,100208.64
2023-03-22T08:55:08.796Z,100204.60
2023-03-22T08:58:10.751Z,100202.94
2023-03-22T09:00:49.268Z,100205.25
2023-03-22T09:03:25.798Z,100207.29
2023-03-22T09:05:52.744Z,100209.29
2023-03-22T09:08:22.817Z,100205.59
2023-03-22T09:10:56.100Z,100205.96
2023-03-22T09:13:23.448Z,100209.18
2023-03-22T09:16:02.178Z,100210.34
2023-03-22T09:18:33.792Z,100207.45
2023-03-22T09:21:03.640Z,100209.34
2023-03-22T09:23:41.675Z,100205.35
2023-03-22T09:26:09.099Z,100207.30
2023-03-22T09:28:36.171Z,100202.98
2023-03-22T09:31:06.254Z,100202.58
2023-03-22T09:33:34.512Z,100202.84
2023-03-22T09:36:01.660Z,100204.52
2023-03-22T09:38:32.099Z,100201.27
2023-03-22T09:41:01.706Z,100197.11
2023-03-22T09:43:50.981Z,100194.23
2023-03-22T09:46:24.391Z,100193.91
2023-03-22T09:48:51.295Z,100193.52
2023-03-22T09:51:35.803Z,100189.23
2023-03-22T09:54:02.965Z,100188.51
2023-03-22T09:56:30.487Z,100193.34
2023-03-22T09:59:00.524Z,100191.77
2023-03-22T10:01:35.378Z,100187.40
2023-03-22T10:04:17.941Z,100184.27
2023-03-22T10:06:47.290Z,100185.88
2023-03-22T10:09:28.917Z,100180.91
2023-03-22T10:12:00.052Z,100177.38
2023-03-22T10:14:40.518Z,100179.30
2023-03-22T10:17:18.311Z,100175.34
2023-03-22T10:19:49.244Z,100170.52
2023-03-22T10:22:16.823Z,100169.33
2023-03-22T10:24:46.409Z,100168.09
2023-03-22T10:27:17.452Z,100168.70
2023-03-22T10:29:51.499Z,100166.17
2023-03-22T10:32:27.733Z,100162.92
2023-03-22T10:34:56.105Z,100159.05
2023-03-22T10:37:24.561Z,100162.66
2023-03-22T10:39:55.524Z,100165.14
2023-03-22T10:42:23.501Z,100158.23
2023-03-22T10:45:10.962Z,100150.73
2023-03-22T10:55:41.375Z,100152.73
2023-03-22T10:58:19.004Z,100149.66
2023-03-22T11:00:52.040Z,100147.42
2023-03-22T11:03:25.094Z,100147.39
2023-03-22T11:05:59.106Z,100145.40
2023-03-22T11:08:26.853Z,100147.00
2023-03-22T11:10:58.588Z,100144.89
2023-03-22T11:13:25.703Z,100141.98
2023-03-22T11:16:01.712Z,100137.70
2023-03-22T11:18:30.148Z,100132.23
2023-03-22T11:21:00.841Z,100128.80
2023-03-22T11:23:28.818Z,100121.92
2023-03-22T11:25:56.582Z,100126.48
2023-03-22T11:28:37.447Z,100128.70
2023-03-22T11:31:06.259Z,100127.34
2023-03-22T11:33:33.677Z,100126.73
2023-03-22T11:36:02.035Z,100125.41
2023-03-22T11:38:39.334Z,100129.31
2023-03-22T11:41:22.871Z,100125.66
2023-03-22T11:43:54.326Z,100127.86
2023-03-22T11:46:21.420Z,100127.91
2023-03-22T11:48:51.078Z,100119.73
2023-03-22T11:51:25.303Z,100118.95
2023-03-22T11:53:54.961Z,100117.55
2023-03-22T11:56:25.283Z,100116.48
2023-03-22T11:59:15.343Z,100115.59
2023-03-22T12:01:46.767Z,100115.77
2023-03-22T12:04:15.058Z,100117.21
2023-03-22T12:06:44.038Z,100114.07
2023-03-22T12:09:41.047Z,100111.27
2023-03-22T12:12:19.044Z,100101.79
2023-03-22T12:14:49.176Z,100102.67
2023-03-22T12:17:36.340Z,100099.46
2023-03-22T12:20:08.304Z,100097.92
2023-03-22T12:22:39.451Z,100092.42
2023-03-22T12:25:10.792Z,100088.06
2023-03-22T12:27:38.416Z,100086.84
2023-03-22T12:30:08.544Z,100086.33
2023-03-22T12:32:38.328Z,100083.16
2023-03-22T12:35:16.592Z,100089.73
2023-03-22T12:37:46.169Z,100086.69
2023-03-22T12:40:18.769Z,100088.54
2023-03-22T12:43:11.695Z,100092.23
2023-03-22T12:45:43.605Z,100095.43
2023-03-22T12:48:21.146Z,100100.42
2023-03-22T12:51:06.015Z,100099.48
2023-03-22T12:53:34.376Z,100102.86
2023-03-22T12:56:01.228Z,100101.77
2023-03-22T12:58:34.420Z,100099.20
2023-03-22T13:01:10.606Z,100096.89
2023-03-22T13:03:38.771Z,100092.92
2023-03-22T13:06:07.207Z,100094.69
2023-03-22T13:08:53.486Z,100095.02
2023-03-22T13:11:23.237Z,100095.13
2023-03-22T13:13:53.323Z,100094.23
2023-03-22T13:16:22.226Z,100092.94
2023-03-22T13:18:49.242Z,100092.35
2023-03-22T13:21:17.321Z,100094.73
2023-03-22T13:24:19.153Z,100097.38
2023-03-22T13:26:53.487Z,100094.20
2023-03-22T13:29:21.442Z,100095.02
2023-03-22T13:31:51.562Z,100095.55
2023-03-22T13:34:19.363Z,100096.17
2023-03-22T13:36:53.859Z,100094.20
2023-03-22T13:39:24.754Z,100102.80
2023-03-22T13:42:03.346Z,100108.58
2023-03-22T13:44:36.072Z,100110.27
2023-03-22T13:47:07.657Z,100113.11
2023-03-22T13:49:42.596Z,100111.11
2023-03-22T13:52:19.486Z,100109.19
2023-03-22T13:54:47.698Z,100112.14
2023-03-22T13:57:16.953Z,100106.29
2023-03-22T14:00:11.918Z,100104.58
2023-03-22T14:03:01.951Z,100104.79
2023-03-22T14:05:30.447Z,100102.85
2023-03-22T14:07:57.533Z,100100.32
2023-03-22T14:10:26.185Z,100100.86
2023-03-22T14:13:04.414Z,100100.91
2023-03-22T14:15:35.726Z,100102.36
2023-03-22T14:18:03.659Z,100105.80
2023-03-22T14:20:31.507Z,100103.93
